createdAt,value
2022-10-30T00:00:53.413Z,2.50
2022-10-30T00:02:56.581Z,2.47
2022-10-30T00:04:59.514Z,2.51
2022-10-30T00:07:02.059Z,2.53
2022-10-30T00:09:04.696Z,2.53
2022-10-30T00:11:10.253Z,2.52
2022-10-30T00:13:14.206Z,2.53
2022-10-30T00:15:17.027Z,2.54
2022-10-30T00:17:19.563Z,2.53
2022-10-30T00:19:22.200Z,2.57
2022-10-30T00:21:24.720Z,2.56
2022-10-30T00:23:27.310Z,2.60
2022-10-30T00:25:29.900Z,2.61
2022-10-30T00:27:32.526Z,2.57
2022-10-30T00:29:35.143Z,2.60
2022-10-30T00:31:37.723Z,2.57
2022-10-30T00:33:40.292Z,2.62
2022-10-30T00:35:48.931Z,2.66
2022-10-30T00:37:51.538Z,2.65
2022-10-30T00:39:54.179Z,2.66
2022-10-30T00:41:56.745Z,2.67
2022-10-30T00:43:59.333Z,2.67
2022-10-30T00:46:37.088Z,2.69
2022-10-30T00:48:39.849Z,2.68
2022-10-30T00:50:42.530Z,2.71
2022-10-30T00:53:12.951Z,2.68
2022-10-30T00:55:21.321Z,2.71
2022-10-30T00:57:24.681Z,2.73
2022-10-30T00:59:32.088Z,2.72
2022-10-30T01:01:42.846Z,2.70
2022-10-30T01:03:47.002Z,2.72
2022-10-30T01:05:53.850Z,2.76
2022-10-30T01:07:56.817Z,2.75
2022-10-30T01:10:00.175Z,2.77
2022-10-30T01:12:02.771Z,2.77
2022-10-30T01:14:08.779Z,2.80
2022-10-30T01:16:26.512Z,2.78
2022-10-30T01:18:50.656Z,2.78
2022-10-30T01:21:05.647Z,2.80
2022-10-30T01:23:20.198Z,2.82
2022-10-30T01:25:49.626Z,2.82
2022-10-30T01:28:08.665Z,2.80
2022-10-30T01:30:26.354Z,2.82
2022-10-30T01:32:58.305Z,2.86
2022-10-30T01:35:34.704Z,2.84
2022-10-30T01:37:46.061Z,2.86
2022-10-30T01:39:48.721Z,2.87
2022-10-30T01:41:51.302Z,2.87
2022-10-30T01:43:59.080Z,2.92
2022-10-30T01:46:10.405Z,2.93
2022-10-30T01:48:22.985Z,2.94
2022-10-30T01:50:45.456Z,2.94
2022-10-30T01:53:25.738Z,2.97
2022-10-30T01:55:37.859Z,2.97
2022-10-30T01:57:47.751Z,2.97
2022-10-30T02:00:03.147Z,3.01
2022-10-30T02:02:08.408Z,3.00
2022-10-30T02:04:13.170Z,3.03
2022-10-30T02:06:15.857Z,3.04
2022-10-30T02:08:19.248Z,3.06
2022-10-30T02:10:21.897Z,3.10
2022-10-30T02:12:24.848Z,3.08
2022-10-30T02:14:52.049Z,3.10
2022-10-30T02:16:58.874Z,3.11
2022-10-30T02:19:02.851Z,3.13
2022-10-30T02:21:06.776Z,3.13
2022-10-30T02:23:13.614Z,3.15
2022-10-30T02:25:16.601Z,3.11
2022-10-30T02:27:19.345Z,3.18
2022-10-30T02:29:22.052Z,3.19
2022-10-30T02:31:24.632Z,3.21
2022-10-30T02:33:27.320Z,3.22
2022-10-30T02:35:30.693Z,3.19
2022-10-30T02:37:35.775Z,3.23
2022-10-30T02:39:38.349Z,3.24
2022-10-30T02:41:40.968Z,3.27
2022-10-30T02:43:43.507Z,3.26
2022-10-30T02:45:52.084Z,3.24
2022-10-30T02:47:54.768Z,3.27
2022-10-30T02:49:57.463Z,3.26
2022-10-30T02:52:00.136Z,3.28
2022-10-30T02:54:02.713Z,3.29
2022-10-30T02:56:07.014Z,3.26
2022-10-30T02:58:10.543Z,3.25
2022-10-30T03:00:13.806Z,3.27
2022-10-30T03:02:16.652Z,3.30
2022-10-30T03:04:19.395Z,3.30
2022-10-30T03:06:22.080Z,3.29
2022-10-30T03:08:24.758Z,3.29
2022-10-30T03:10:27.380Z,3.32
2022-10-30T03:12:30.002Z,3.35
2022-10-30T03:14:32.935Z,3.37
2022-10-30T03:16:37.108Z,3.38
2022-10-30T03:18:40.502Z,3.38
2022-10-30T03:20:43.039Z,3.36
2022-10-30T03:22:45.818Z,3.37
2022-10-30T03:24:48.314Z,3.36
2022-10-30T03:26:50.970Z,3.37
2022-10-30T03:28:53.493Z,3.36
2022-10-30T03:31:04.157Z,3.37
2022-10-30T03:33:06.852Z,3.39
2022-10-30T03:35:09.462Z,3.38
2022-10-30T03:37:12.005Z,3.35
2022-10-30T03:39:14.635Z,3.38
2022-10-30T03:41:17.340Z,3.36
2022-10-30T03:43:20.025Z,3.39
2022-10-30T03:45:22.627Z,3.39
2022-10-30T03:47:25.175Z,3.36
2022-10-30T03:49:27.725Z,3.39
2022-10-30T03:51:30.290Z,3.41
2022-10-30T03:53:32.836Z,3.41
2022-10-30T03:55:35.459Z,3.42
2022-10-30T03:57:38.652Z,3.40
2022-10-30T03:59:41.590Z,3.43
2022-10-30T04:01:44.335Z,3.43
2022-10-30T04:03:47.126Z,3.43
2022-10-30T04:05:53.054Z,3.43
2022-10-30T04:07:57.310Z,3.42
2022-10-30T04:09:59.935Z,3.42
2022-10-30T04:12:02.584Z,3.44
2022-10-30T04:14:05.270Z,3.46
2022-10-30T04:16:08.077Z,3.46
2022-10-30T04:18:14.322Z,3.47
2022-10-30T04:20:17.484Z,3.47
2022-10-30T04:22:20.042Z,3.48
2022-10-30T04:24:22.856Z,3.49
2022-10-30T04:26:25.398Z,3.51
2022-10-30T04:28:28.058Z,3.52
2022-10-30T04:30:35.482Z,3.50
2022-10-30T04:32:45.846Z,3.59
2022-10-30T04:34:48.344Z,3.57
2022-10-30T04:36:50.984Z,3.58
2022-10-30T04:38:53.485Z,3.60
2022-10-30T04:40:56.066Z,3.64
2022-10-30T04:42:59.311Z,3.62
2022-10-30T04:45:05.083Z,3.62
2022-10-30T04:47:07.773Z,3.62
2022-10-30T04:49:10.512Z,3.59
2022-10-30T04:51:13.077Z,3.66
2022-10-30T04:53:19.271Z,3.69
2022-10-30T04:55:21.981Z,3.72
2022-10-30T04:57:24.628Z,3.67
2022-10-30T04:59:27.902Z,3.69
2022-10-30T05:01:30.993Z,3.67
2022-10-30T05:03:34.144Z,3.69
2022-10-30T05:05:36.710Z,3.67
2022-10-30T05:07:39.422Z,3.69
2022-10-30T05:09:41.993Z,3.68
2022-10-30T05:11:44.525Z,3.68
2022-10-30T05:13:47.190Z,3.69
2022-10-30T05:15:50.171Z,3.69
2022-10-30T05:17:54.409Z,3.71
2022-10-30T05:19:57.040Z,3.69
2022-10-30T05:21:59.725Z,3.70
2022-10-30T05:24:02.539Z,3.72
2022-10-30T05:26:05.283Z,3.73
2022-10-30T05:28:07.965Z,3.73
2022-10-30T05:30:11.089Z,3.74
2022-10-30T05:34:17.316Z,3.77
2022-10-30T05:36:20.118Z,3.76
2022-10-30T05:38:22.829Z,3.75
2022-10-30T05:40:25.583Z,3.77
2022-10-30T05:42:28.154Z,3.75
2022-10-30T05:44:58.701Z,3.74
2022-10-30T05:46:53.447Z,3.75
2022-10-30T05:48:56.032Z,3.77
2022-10-30T05:50:58.747Z,3.77
2022-10-30T05:53:03.643Z,3.77
2022-10-30T05:55:06.625Z,3.77
2022-10-30T05:57:09.347Z,3.78
2022-10-30T05:59:12.031Z,3.78
2022-10-30T06:01:14.709Z,3.77
2022-10-30T06:03:18.460Z,3.81
2022-10-30T06:05:21.076Z,3.84
2022-10-30T06:07:23.883Z,3.86
2022-10-30T06:09:26.540Z,3.89
2022-10-30T06:11:29.169Z,3.89
2022-10-30T06:13:31.860Z,3.88
2022-10-30T06:15:34.509Z,3.91
2022-10-30T06:17:37.096Z,3.90
2022-10-30T06:19:39.809Z,3.90
2022-10-30T06:21:42.484Z,3.92
2022-10-30T06:23:45.037Z,3.90
2022-10-30T06:25:48.386Z,3.94
2022-10-30T06:27:51.398Z,3.91
2022-10-30T06:29:55.112Z,3.93
2022-10-30T06:31:59.748Z,3.95
2022-10-30T06:34:05.575Z,4.01
2022-10-30T06:36:08.383Z,4.03
2022-10-30T06:38:12.308Z,4.06
2022-10-30T06:40:16.099Z,4.10
2022-10-30T06:42:18.718Z,4.11
2022-10-30T06:44:21.376Z,4.10
2022-10-30T06:46:27.055Z,4.11
2022-10-30T06:48:33.391Z,4.11
2022-10-30T06:50:36.030Z,4.11
2022-10-30T06:52:38.942Z,4.16
2022-10-30T06:54:41.708Z,4.15
2022-10-30T06:56:44.386Z,4.16
2022-10-30T06:58:47.016Z,4.18
2022-10-30T07:03:00.708Z,4.18
2022-10-30T07:05:04.404Z,4.17
2022-10-30T07:07:07.007Z,4.18
2022-10-30T07:09:09.695Z,4.18
2022-10-30T07:11:12.293Z,4.13
2022-10-30T07:13:15.044Z,4.16
2022-10-30T07:15:17.732Z,4.13
2022-10-30T07:17:20.343Z,4.14
2022-10-30T07:19:23.753Z,4.15
2022-10-30T07:21:27.163Z,4.15
2022-10-30T07:23:29.761Z,4.20
2022-10-30T07:25:32.388Z,4.20
2022-10-30T07:27:43.125Z,4.13
2022-10-30T07:29:45.743Z,4.14
2022-10-30T07:32:01.818Z,4.12
2022-10-30T07:34:05.513Z,4.14
2022-10-30T07:36:08.881Z,4.12
2022-10-30T07:38:14.432Z,4.14
2022-10-30T07:40:17.176Z,4.20
2022-10-30T07:42:19.791Z,4.16
2022-10-30T07:44:22.544Z,4.19
2022-10-30T07:46:25.164Z,4.19
2022-10-30T07:48:27.749Z,4.18
2022-10-30T07:50:30.583Z,4.24
2022-10-30T07:52:33.621Z,4.18
2022-10-30T07:54:36.280Z,4.20
2022-10-30T07:56:38.939Z,4.23
2022-10-30T07:58:45.448Z,4.27
2022-10-30T08:00:48.778Z,4.27
2022-10-30T08:02:56.173Z,4.29
2022-10-30T08:04:59.595Z,4.29
2022-10-30T08:07:02.161Z,4.33
2022-10-30T08:09:04.811Z,4.30
2022-10-30T08:11:07.415Z,4.32
2022-10-30T08:13:10.010Z,4.35
2022-10-30T08:15:12.788Z,4.32
2022-10-30T08:17:15.537Z,4.34
2022-10-30T08:19:18.124Z,4.39
2022-10-30T08:21:21.114Z,4.38
2022-10-30T08:23:23.673Z,4.39
2022-10-30T08:25:29.136Z,4.39
2022-10-30T08:27:31.872Z,4.39
2022-10-30T08:29:37.133Z,4.36
2022-10-30T08:31:39.732Z,4.36
2022-10-30T08:33:42.388Z,4.39
2022-10-30T08:35:52.902Z,4.42
2022-10-30T08:37:59.955Z,4.44
2022-10-30T08:40:21.010Z,4.42
2022-10-30T08:42:42.434Z,4.42
2022-10-30T08:45:03.674Z,4.42
2022-10-30T08:47:07.065Z,4.44
2022-10-30T08:49:09.727Z,4.48
2022-10-30T08:51:49.553Z,4.49
2022-10-30T08:53:52.158Z,4.50
2022-10-30T08:56:13.163Z,4.45
2022-10-30T08:58:15.874Z,4.45
2022-10-30T09:01:00.280Z,4.50
2022-10-30T09:03:25.117Z,4.49
2022-10-30T09:05:27.790Z,4.51
2022-10-30T09:07:50.501Z,4.52
2022-10-30T09:09:53.246Z,4.41
2022-10-30T09:12:14.387Z,4.51
2022-10-30T09:14:35.342Z,4.50
2022-10-30T09:16:38.037Z,4.52
2022-10-30T09:18:41.609Z,4.51
2022-10-30T09:21:04.942Z,4.50
2022-10-30T09:23:08.926Z,4.51
2022-10-30T09:25:11.965Z,4.50
2022-10-30T09:27:15.520Z,4.53
2022-10-30T09:29:18.385Z,4.54
2022-10-30T09:31:21.037Z,4.51
2022-10-30T09:33:24.121Z,4.51
2022-10-30T09:35:27.079Z,4.53
2022-10-30T09:37:34.353Z,4.53
2022-10-30T09:39:37.083Z,4.55
2022-10-30T09:42:10.436Z,4.56
2022-10-30T09:44:31.295Z,4.55
2022-10-30T09:47:04.514Z,4.61
2022-10-30T09:49:36.042Z,4.59
2022-10-30T09:52:03.007Z,4.56
2022-10-30T09:54:37.274Z,4.55
2022-10-30T09:56:59.412Z,4.54
2022-10-30T09:59:32.972Z,4.58
2022-10-30T10:02:31.137Z,4.59
2022-10-30T10:04:44.073Z,4.55
2022-10-30T10:06:52.553Z,4.57
2022-10-30T10:09:04.063Z,4.57
2022-10-30T10:11:33.779Z,4.58
2022-10-30T10:13:42.617Z,4.57
2022-10-30T10:15:54.145Z,4.63
2022-10-30T10:18:02.028Z,4.64
2022-10-30T10:20:06.308Z,4.65
2022-10-30T10:22:26.282Z,4.65
2022-10-30T10:24:44.634Z,4.62
2022-10-30T10:26:53.509Z,4.63
2022-10-30T10:29:02.041Z,4.65
2022-10-30T10:31:29.525Z,4.65
2022-10-30T10:34:07.129Z,4.65
2022-10-30T10:36:25.104Z,4.67
2022-10-30T10:38:56.836Z,4.68
2022-10-30T10:41:13.253Z,4.68
2022-10-30T10:44:03.626Z,4.68
2022-10-30T10:46:39.322Z,4.70
2022-10-30T10:48:48.826Z,4.69
2022-10-30T10:51:22.493Z,4.71
2022-10-30T10:53:34.121Z,4.72
2022-10-30T10:55:39.190Z,4.71
2022-10-30T10:57:43.762Z,4.70
2022-10-30T11:00:11.312Z,4.73
2022-10-30T11:02:37.791Z,4.72
2022-10-30T11:04:43.675Z,4.75
2022-10-30T11:06:53.647Z,4.70
2022-10-30T11:09:13.614Z,4.68
2022-10-30T11:11:16.988Z,4.73
2022-10-30T11:13:38.922Z,4.74
2022-10-30T11:15:44.336Z,4.78
2022-10-30T11:18:01.311Z,4.78
2022-10-30T11:20:19.101Z,4.79
2022-10-30T11:22:28.789Z,4.78
2022-10-30T11:24:36.283Z,4.79
2022-10-30T11:26:39.077Z,4.81
2022-10-30T11:28:52.851Z,4.85
2022-10-30T11:31:36.511Z,4.88
2022-10-30T11:33:57.747Z,4.89
2022-10-30T11:36:28.012Z,4.88
2022-10-30T11:38:31.252Z,4.91
2022-10-30T11:40:34.816Z,4.92
2022-10-30T11:42:45.111Z,4.92
2022-10-30T11:44:52.239Z,4.95
2022-10-30T11:46:55.662Z,4.93
2022-10-30T11:49:16.516Z,4.90
2022-10-30T11:51:35.372Z,4.94
2022-10-30T11:54:02.155Z,4.89
2022-10-30T11:56:16.516Z,4.94
2022-10-30T11:59:01.308Z,4.94
2022-10-30T12:01:14.117Z,4.91
2022-10-30T12:03:48.509Z,4.95
2022-10-30T12:05:51.103Z,4.98
2022-10-30T12:08:34.972Z,5.00
2022-10-30T12:11:11.389Z,5.01
2022-10-30T12:13:19.519Z,5.08
2022-10-30T12:15:27.929Z,5.08
2022-10-30T12:17:52.263Z,5.06
2022-10-30T12:20:32.022Z,5.09
2022-10-30T12:23:11.971Z,5.07
2022-10-30T12:25:23.547Z,5.03
2022-10-30T12:27:27.254Z,5.05
2022-10-30T12:30:24.923Z,5.04
2022-10-30T12:32:39.719Z,5.02
2022-10-30T12:35:10.691Z,5.03
2022-10-30T12:37:25.957Z,5.03
2022-10-30T12:39:55.541Z,5.06
2022-10-30T12:42:23.334Z,5.06
2022-10-30T12:44:30.972Z,5.07
2022-10-30T12:46:58.003Z,5.09
2022-10-30T12:49:09.708Z,5.09
2022-10-30T12:51:43.358Z,5.11
2022-10-30T12:54:00.764Z,5.06
2022-10-30T12:56:13.625Z,5.11
2022-10-30T12:58:43.090Z,5.17
2022-10-30T13:01:17.683Z,5.18
2022-10-30T13:03:55.056Z,5.17
2022-10-30T13:06:24.812Z,5.18
2022-10-30T13:08:45.980Z,5.17
2022-10-30T13:11:03.790Z,5.21
2022-10-30T13:13:19.071Z,5.20
2022-10-30T13:15:48.676Z,5.26
2022-10-30T13:17:51.561Z,5.26
2022-10-30T13:19:55.137Z,5.28
2022-10-30T13:22:26.634Z,5.29
2022-10-30T13:25:20.766Z,5.31
2022-10-30T13:27:46.137Z,5.30
2022-10-30T13:30:03.453Z,5.36
2022-10-30T13:32:12.195Z,5.37
2022-10-30T13:34:48.389Z,5.41
2022-10-30T13:37:01.131Z,5.43
2022-10-30T13:39:37.183Z,5.41
2022-10-30T13:42:01.465Z,5.41
2022-10-30T13:44:45.208Z,5.39
2022-10-30T13:47:12.343Z,5.40
2022-10-30T13:49:26.001Z,5.38
2022-10-30T13:51:35.056Z,5.36
2022-10-30T13:53:59.180Z,5.41
2022-10-30T13:56:02.665Z,5.42
2022-10-30T13:58:17.372Z,5.39
2022-10-30T14:00:21.726Z,5.41
2022-10-30T14:02:45.983Z,5.44
2022-10-30T14:05:26.217Z,5.45
2022-10-30T14:07:50.232Z,5.46
2022-10-30T14:10:11.128Z,5.47
2022-10-30T14:13:11.094Z,5.46
2022-10-30T14:15:31.840Z,5.47
2022-10-30T14:18:30.447Z,5.46
2022-10-30T14:20:52.785Z,5.51
2022-10-30T14:23:13.425Z,5.55
2022-10-30T14:25:35.141Z,5.58
2022-10-30T14:27:37.724Z,5.63
2022-10-30T14:29:47.057Z,5.64
2022-10-30T14:32:07.984Z,5.71
2022-10-30T14:34:42.372Z,5.74
2022-10-30T14:36:44.920Z,5.75
2022-10-30T14:39:20.597Z,5.75
2022-10-30T14:42:05.373Z,5.81
2022-10-30T14:44:29.368Z,5.86
2022-10-30T14:46:44.275Z,5.89
2022-10-30T14:49:13.057Z,5.91
2022-10-30T14:51:36.443Z,5.95
2022-10-30T14:53:55.179Z,5.98
2022-10-30T14:58:27.667Z,6.04
2022-10-30T15:00:35.839Z,6.06
2022-10-30T15:03:02.750Z,6.05
2022-10-30T15:05:42.029Z,6.06
2022-10-30T15:08:22.188Z,6.04
2022-10-30T15:10:53.500Z,6.09
2022-10-30T15:13:22.192Z,6.11
2022-10-30T15:15:25.238Z,6.17
2022-10-30T15:17:41.128Z,6.18
2022-10-30T15:19:43.820Z,6.22
2022-10-30T15:21:54.109Z,6.23
2022-10-30T15:23:59.657Z,6.24
2022-10-30T15:26:09.775Z,6.24
2022-10-30T15:30:33.972Z,6.28
2022-10-30T15:32:41.135Z,6.32
2022-10-30T15:35:05.184Z,6.37
2022-10-30T15:37:31.586Z,6.36
2022-10-30T15:39:34.197Z,6.39
2022-10-30T15:41:48.920Z,6.43
2022-10-30T15:43:51.510Z,6.46
2022-10-30T15:45:55.927Z,6.51
2022-10-30T15:48:19.597Z,6.54
2022-10-30T15:50:43.104Z,6.55
2022-10-30T15:52:46.325Z,6.60
2022-10-30T15:54:55.372Z,6.64
2022-10-30T15:57:36.499Z,6.66
2022-10-30T15:59:42.741Z,6.71
2022-10-30T16:02:05.286Z,6.76
2022-10-30T16:04:35.373Z,6.81
2022-10-30T16:06:38.013Z,6.82
2022-10-30T16:08:46.538Z,6.85
2022-10-30T16:10:52.840Z,6.87
2022-10-30T16:12:57.770Z,6.87
2022-10-30T16:15:18.136Z,6.92
2022-10-30T16:17:21.440Z,6.94
2022-10-30T16:19:30.388Z,6.96
2022-10-30T16:21:51.543Z,6.95
2022-10-30T16:24:12.835Z,7.03
2022-10-30T16:26:30.244Z,7.02
2022-10-30T16:29:09.973Z,7.04
2022-10-30T16:31:16.181Z,7.07
2022-10-30T16:33:25.360Z,7.10
2022-10-30T16:35:53.061Z,7.11
2022-10-30T16:38:16.853Z,7.11
2022-10-30T16:40:28.470Z,7.16
2022-10-30T16:42:49.769Z,7.20
2022-10-30T16:45:13.476Z,7.23
2022-10-30T16:47:37.683Z,7.28
2022-10-30T16:50:02.531Z,7.30
2022-10-30T16:52:07.867Z,7.33
2022-10-30T16:54:47.580Z,7.36
2022-10-30T16:56:53.253Z,7.37
2022-10-30T16:59:34.689Z,7.38
2022-10-30T17:01:58.257Z,7.33
2022-10-30T17:04:01.413Z,7.34
2022-10-30T17:06:39.975Z,7.35
2022-10-30T17:09:01.106Z,7.31
2022-10-30T17:11:34.393Z,7.28
2022-10-30T17:13:55.544Z,7.29
2022-10-30T17:15:59.676Z,7.27
2022-10-30T17:18:14.194Z,7.26
2022-10-30T17:20:19.748Z,7.25
2022-10-30T17:22:41.249Z,7.23
2022-10-30T17:25:02.218Z,7.19
2022-10-30T17:27:22.471Z,7.14
2022-10-30T17:30:03.239Z,7.05
2022-10-30T17:32:23.330Z,6.96
2022-10-30T17:34:25.919Z,6.90
2022-10-30T17:36:46.816Z,6.85
2022-10-30T17:39:07.834Z,6.72
2022-10-30T17:41:29.637Z,6.63
2022-10-30T17:43:35.903Z,6.62
2022-10-30T17:45:57.296Z,6.57
2022-10-30T17:48:00.191Z,6.52
2022-10-30T17:50:05.617Z,6.45
2022-10-30T17:52:26.777Z,6.39
2022-10-30T17:54:47.886Z,6.35
2022-10-30T17:56:51.114Z,6.31
2022-10-30T17:58:54.695Z,6.25
2022-10-30T18:00:58.489Z,6.22
2022-10-30T18:03:01.632Z,6.17
2022-10-30T18:05:17.874Z,6.15
2022-10-30T18:07:20.628Z,6.10
2022-10-30T18:09:23.231Z,6.09
2022-10-30T18:11:27.275Z,6.08
2022-10-30T18:14:07.255Z,6.06
2022-10-30T18:16:11.201Z,5.96
2022-10-30T18:18:13.822Z,5.96
2022-10-30T18:20:16.486Z,5.96
2022-10-30T18:22:37.761Z,5.92
2022-10-30T18:24:40.411Z,5.90
2022-10-30T18:26:43.073Z,5.90
2022-10-30T18:28:46.332Z,5.88
2022-10-30T18:30:54.508Z,5.87
2022-10-30T18:32:57.903Z,5.88
2022-10-30T18:35:00.907Z,5.80
2022-10-30T18:37:03.480Z,5.82
2022-10-30T18:39:06.049Z,5.84
2022-10-30T18:41:23.102Z,5.85
2022-10-30T18:43:25.712Z,5.83
2022-10-30T18:45:37.699Z,5.78
2022-10-30T18:47:40.356Z,5.75
2022-10-30T18:49:43.116Z,5.74
2022-10-30T18:51:46.342Z,5.70
2022-10-30T18:53:52.311Z,5.71
2022-10-30T18:55:55.278Z,5.71
2022-10-30T18:57:58.072Z,5.71
2022-10-30T19:00:04.287Z,5.70
2022-10-30T19:02:22.139Z,5.71
2022-10-30T19:04:24.871Z,5.75
2022-10-30T19:06:27.501Z,5.76
2022-10-30T19:08:30.047Z,5.72
2022-10-30T19:10:35.566Z,5.72
2022-10-30T19:12:42.158Z,5.70
2022-10-30T19:14:45.132Z,5.69
2022-10-30T19:17:06.446Z,5.71
2022-10-30T19:19:09.001Z,5.71
2022-10-30T19:21:35.440Z,5.70
2022-10-30T19:23:38.219Z,5.71
2022-10-30T19:25:44.423Z,5.72
2022-10-30T19:27:47.070Z,5.70
2022-10-30T19:29:49.716Z,5.71
2022-10-30T19:31:52.937Z,5.70
2022-10-30T19:33:57.337Z,5.70
2022-10-30T19:36:04.815Z,5.69
2022-10-30T19:38:10.946Z,5.68
2022-10-30T19:40:21.221Z,5.74
2022-10-30T19:42:24.107Z,5.72
2022-10-30T19:44:46.042Z,5.70
2022-10-30T19:46:48.755Z,5.71
2022-10-30T19:48:59.637Z,5.71
2022-10-30T19:51:03.874Z,5.73
2022-10-30T19:53:07.881Z,5.76
2022-10-30T19:55:29.360Z,5.75
2022-10-30T19:57:32.167Z,5.70
2022-10-30T19:59:34.896Z,5.65
2022-10-30T20:01:56.151Z,5.67
2022-10-30T20:04:00.120Z,5.64
2022-10-30T20:06:02.956Z,5.59
2022-10-30T20:08:06.757Z,5.60
2022-10-30T20:10:19.259Z,5.57
2022-10-30T20:12:21.801Z,5.53
2022-10-30T20:14:24.378Z,5.45
2022-10-30T20:16:27.027Z,5.39
2022-10-30T20:18:32.228Z,5.38
2022-10-30T20:20:35.723Z,5.37
2022-10-30T20:22:38.334Z,5.36
2022-10-30T20:24:40.975Z,5.34
2022-10-30T20:26:43.588Z,5.33
2022-10-30T20:28:46.538Z,5.31
2022-10-30T20:30:50.351Z,5.28
2022-10-30T20:32:52.925Z,5.29
2022-10-30T20:34:55.527Z,5.26
2022-10-30T20:36:58.071Z,5.26
2022-10-30T20:39:00.720Z,5.24
2022-10-30T20:41:05.088Z,5.19
2022-10-30T20:43:13.983Z,5.20
2022-10-30T20:45:19.405Z,5.18
2022-10-30T20:47:22.022Z,5.18
2022-10-30T20:49:24.536Z,5.19
2022-10-30T20:51:27.119Z,5.20
2022-10-30T20:53:30.345Z,5.21
2022-10-30T20:55:35.871Z,5.18
2022-10-30T20:57:39.235Z,5.14
2022-10-30T20:59:41.840Z,5.14
2022-10-30T21:01:44.683Z,5.18
2022-10-30T21:04:05.826Z,5.19
2022-10-30T21:06:10.099Z,5.09
2022-10-30T21:08:33.153Z,5.13
2022-10-30T21:10:39.336Z,5.11
2022-10-30T21:12:42.208Z,5.14
2022-10-30T21:15:03.484Z,5.15
2022-10-30T21:17:06.496Z,5.12
2022-10-30T21:19:09.115Z,5.12
2022-10-30T21:21:30.385Z,5.14
2022-10-30T21:23:33.013Z,5.08
2022-10-30T21:26:05.155Z,5.08
2022-10-30T21:28:26.074Z,5.04
2022-10-30T21:31:06.227Z,5.03
2022-10-30T21:33:08.883Z,5.02
2022-10-30T21:35:11.398Z,5.02
2022-10-30T21:37:14.001Z,5.04
2022-10-30T21:39:35.022Z,5.08
2022-10-30T21:42:14.968Z,5.08
2022-10-30T21:44:17.535Z,5.09
2022-10-30T21:46:38.971Z,5.09
2022-10-30T21:49:18.489Z,5.05
2022-10-30T21:51:40.585Z,5.03
2022-10-30T21:53:44.534Z,5.02
2022-10-30T21:55:47.066Z,5.03
2022-10-30T21:57:49.605Z,5.03
2022-10-30T21:59:52.198Z,5.01
2022-10-30T22:01:54.868Z,4.99
2022-10-30T22:04:00.101Z,4.97
2022-10-30T22:06:07.778Z,4.94
2022-10-30T22:08:10.461Z,4.91
2022-10-30T22:10:13.326Z,4.91
2022-10-30T22:12:34.323Z,4.94
2022-10-30T22:14:37.009Z,4.96
2022-10-30T22:16:40.257Z,4.97
2022-10-30T22:18:42.905Z,4.95
2022-10-30T22:21:22.774Z,4.97
2022-10-30T22:24:03.059Z,4.95
2022-10-30T22:26:15.241Z,4.90
2022-10-30T22:28:55.233Z,4.90
2022-10-30T22:31:10.554Z,4.86
2022-10-30T22:33:13.113Z,4.88
2022-10-30T22:35:15.723Z,4.87
2022-10-30T22:37:37.116Z,4.90
2022-10-30T22:40:35.932Z,4.87
2022-10-30T22:43:15.616Z,4.79
2022-10-30T22:45:37.127Z,4.68
2022-10-30T22:47:58.694Z,4.66
2022-10-30T22:50:20.140Z,4.61
2022-10-30T22:52:22.667Z,4.59
2022-10-30T22:55:02.814Z,4.53
2022-10-30T22:57:05.816Z,4.49
2022-10-30T22:59:46.166Z,4.49
2022-10-30T23:02:25.676Z,4.43
2022-10-30T23:05:24.807Z,4.38
2022-10-30T23:08:04.394Z,4.28
2022-10-30T23:10:07.862Z,4.26
2022-10-30T23:12:47.673Z,4.26
2022-10-30T23:15:27.778Z,4.21
2022-10-30T23:18:10.477Z,4.20
2022-10-30T23:20:47.914Z,4.15
2022-10-30T23:23:27.352Z,4.13
2022-10-30T23:25:29.884Z,4.15
2022-10-30T23:27:50.819Z,4.13
2022-10-30T23:30:11.933Z,4.07
2022-10-30T23:32:33.137Z,4.02
2022-10-30T23:34:54.388Z,3.98
2022-10-30T23:37:15.915Z,3.94
2022-10-30T23:39:37.018Z,3.86
2022-10-30T23:41:58.167Z,3.80
2022-10-30T23:44:20.531Z,3.72
2022-10-30T23:47:00.531Z,3.66
2022-10-30T23:49:21.447Z,3.57
2022-10-30T23:51:24.545Z,3.53
2022-10-30T23:53:27.200Z,3.50
2022-10-30T23:55:52.750Z,3.44
2022-10-30T23:58:13.966Z,3.40
